sensor_id;sensor_type;location;lat;lon;timestamp;P1;durP1;ratioP1;P2;durP2;ratioP2
35990;SDS011;22064;42.672;23.282;2023-07-29T00:01:05;6.35;;;3.40;;
35990;SDS011;22064;42.672;23.282;2023-07-29T00:03:31;7.38;;;3.70;;
35990;SDS011;22064;42.672;23.282;2023-07-29T00:05:57;7.95;;;3.50;;
35990;SDS011;22064;42.672;23.282;2023-07-29T00:08:23;5.85;;;3.40;;
35990;SDS011;22064;42.672;23.282;2023-07-29T00:10:50;7.18;;;3.40;;
35990;SDS011;22064;42.672;23.282;2023-07-29T00:13:16;7.05;;;3.40;;
35990;SDS011;22064;42.672;23.282;2023-07-29T00:15:41;4.68;;;3.20;;
35990;SDS011;22064;42.672;23.282;2023-07-29T00:18:07;6.00;;;3.40;;
35990;SDS011;22064;42.672;23.282;2023-07-29T00:20:33;5.80;;;3.30;;
35990;SDS011;22064;42.672;23.282;2023-07-29T00:22:59;5.72;;;3.70;;
35990;SDS011;22064;42.672;23.282;2023-07-29T00:25:27;5.18;;;3.30;;
35990;SDS011;22064;42.672;23.282;2023-07-29T00:27:55;5.75;;;3.13;;
35990;SDS011;22064;42.672;23.282;2023-07-29T00:30:21;6.53;;;3.50;;
35990;SDS011;22064;42.672;23.282;2023-07-29T00:32:47;6.82;;;3.30;;
35990;SDS011;22064;42.672;23.282;2023-07-29T00:35:13;5.97;;;3.45;;
35990;SDS011;22064;42.672;23.282;2023-07-29T00:37:39;5.85;;;3.60;;
35990;SDS011;22064;42.672;23.282;2023-07-29T00:40:08;4.95;;;3.13;;
35990;SDS011;22064;42.672;23.282;2023-07-29T00:42:40;4.85;;;3.50;;
35990;SDS011;22064;42.672;23.282;2023-07-29T00:45:08;8.43;;;3.17;;
35990;SDS011;22064;42.672;23.282;2023-07-29T00:47:35;5.72;;;3.53;;
35990;SDS011;22064;42.672;23.282;2023-07-29T00:50:01;6.15;;;3.38;;
35990;SDS011;22064;42.672;23.282;2023-07-29T00:52:29;7.78;;;3.50;;
35990;SDS011;22064;42.672;23.282;2023-07-29T00:54:55;6.00;;;3.50;;
35990;SDS011;22064;42.672;23.282;2023-07-29T00:57:21;4.47;;;3.38;;
35990;SDS011;22064;42.672;23.282;2023-07-29T00:59:47;5.80;;;3.22;;
35990;SDS011;22064;42.672;23.282;2023-07-29T01:02:13;4.13;;;3.22;;
35990;SDS011;22064;42.672;23.282;2023-07-29T01:04:39;4.97;;;3.53;;
35990;SDS011;22064;42.672;23.282;2023-07-29T01:12:22;4.88;;;3.50;;
35990;SDS011;22064;42.672;23.282;2023-07-29T01:17:33;7.13;;;3.38;;
35990;SDS011;22064;42.672;23.282;2023-07-29T01:20:07;4.85;;;3.30;;
35990;SDS011;22064;42.672;23.282;2023-07-29T01:22:35;5.30;;;3.50;;
35990;SDS011;22064;42.672;23.282;2023-07-29T01:25:03;4.35;;;3.30;;
35990;SDS011;22064;42.672;23.282;2023-07-29T01:27:29;5.07;;;3.50;;
35990;SDS011;22064;42.672;23.282;2023-07-29T01:29:56;7.10;;;3.45;;
35990;SDS011;22064;42.672;23.282;2023-07-29T01:32:35;8.70;;;3.63;;
35990;SDS011;22064;42.672;23.282;2023-07-29T01:35:10;6.07;;;3.40;;
35990;SDS011;22064;42.672;23.282;2023-07-29T01:37:44;5.75;;;3.70;;
35990;SDS011;22064;42.672;23.282;2023-07-29T01:40:21;4.47;;;3.40;;
35990;SDS011;22064;42.672;23.282;2023-07-29T01:42:50;5.38;;;3.13;;
35990;SDS011;22064;42.672;23.282;2023-07-29T01:45:16;6.22;;;3.40;;
35990;SDS011;22064;42.672;23.282;2023-07-29T01:47:42;7.05;;;3.60;;
35990;SDS011;22064;42.672;23.282;2023-07-29T01:50:09;6.55;;;3.60;;
35990;SDS011;22064;42.672;23.282;2023-07-29T01:52:35;6.22;;;3.67;;
35990;SDS011;22064;42.672;23.282;2023-07-29T01:55:01;6.22;;;3.88;;
35990;SDS011;22064;42.672;23.282;2023-07-29T01:57:28;6.07;;;3.65;;
35990;SDS011;22064;42.672;23.282;2023-07-29T01:59:54;7.65;;;3.63;;
35990;SDS011;22064;42.672;23.282;2023-07-29T02:02:20;7.13;;;3.78;;
35990;SDS011;22064;42.672;23.282;2023-07-29T02:04:46;7.68;;;3.80;;
35990;SDS011;22064;42.672;23.282;2023-07-29T02:07:17;6.22;;;3.53;;
35990;SDS011;22064;42.672;23.282;2023-07-29T02:09:45;8.35;;;3.53;;
35990;SDS011;22064;42.672;23.282;2023-07-29T02:12:11;6.00;;;3.63;;
35990;SDS011;22064;42.672;23.282;2023-07-29T02:14:37;6.22;;;3.42;;
35990;SDS011;22064;42.672;23.282;2023-07-29T02:17:03;6.18;;;4.15;;
35990;SDS011;22064;42.672;23.282;2023-07-29T02:19:29;5.35;;;3.45;;
35990;SDS011;22064;42.672;23.282;2023-07-29T02:21:55;8.02;;;4.28;;
35990;SDS011;22064;42.672;23.282;2023-07-29T02:24:21;4.63;;;3.42;;
35990;SDS011;22064;42.672;23.282;2023-07-29T02:26:47;5.25;;;3.60;;
35990;SDS011;22064;42.672;23.282;2023-07-29T02:29:13;4.57;;;3.47;;
35990;SDS011;22064;42.672;23.282;2023-07-29T02:31:39;8.63;;;3.80;;
35990;SDS011;22064;42.672;23.282;2023-07-29T02:34:05;5.72;;;3.33;;
35990;SDS011;22064;42.672;23.282;2023-07-29T02:36:31;6.82;;;4.07;;
35990;SDS011;22064;42.672;23.282;2023-07-29T02:38:57;5.65;;;3.28;;
35990;SDS011;22064;42.672;23.282;2023-07-29T02:41:23;5.45;;;3.63;;
35990;SDS011;22064;42.672;23.282;2023-07-29T02:43:50;7.07;;;3.50;;
35990;SDS011;22064;42.672;23.282;2023-07-29T02:46:16;5.97;;;3.50;;
35990;SDS011;22064;42.672;23.282;2023-07-29T02:48:43;6.45;;;3.72;;
35990;SDS011;22064;42.672;23.282;2023-07-29T02:51:10;6.95;;;3.53;;
35990;SDS011;22064;42.672;23.282;2023-07-29T02:53:36;6.57;;;3.75;;
35990;SDS011;22064;42.672;23.282;2023-07-29T02:56:02;7.70;;;4.13;;
35990;SDS011;22064;42.672;23.282;2023-07-29T02:58:29;7.43;;;4.50;;
35990;SDS011;22064;42.672;23.282;2023-07-29T03:01:05;10.30;;;4.60;;
35990;SDS011;22064;42.672;23.282;2023-07-29T03:03:32;10.43;;;4.90;;
35990;SDS011;22064;42.672;23.282;2023-07-29T03:05:59;7.72;;;4.55;;
35990;SDS011;22064;42.672;23.282;2023-07-29T03:08:35;7.57;;;5.00;;
35990;SDS011;22064;42.672;23.282;2023-07-29T03:11:08;8.18;;;4.75;;
35990;SDS011;22064;42.672;23.282;2023-07-29T03:13:36;10.75;;;4.88;;
35990;SDS011;22064;42.672;23.282;2023-07-29T03:16:07;13.32;;;6.40;;
35990;SDS011;22064;42.672;23.282;2023-07-29T03:18:38;12.13;;;6.03;;
35990;SDS011;22064;42.672;23.282;2023-07-29T03:21:04;10.13;;;5.82;;
35990;SDS011;22064;42.672;23.282;2023-07-29T03:23:31;9.50;;;5.18;;
35990;SDS011;22064;42.672;23.282;2023-07-29T03:25:58;8.48;;;5.03;;
35990;SDS011;22064;42.672;23.282;2023-07-29T03:28:29;16.42;;;6.28;;
35990;SDS011;22064;42.672;23.282;2023-07-29T03:30:58;12.73;;;5.68;;
35990;SDS011;22064;42.672;23.282;2023-07-29T03:33:25;20.58;;;6.53;;
35990;SDS011;22064;42.672;23.282;2023-07-29T03:35:52;10.52;;;5.28;;
35990;SDS011;22064;42.672;23.282;2023-07-29T03:38:18;11.63;;;5.50;;
35990;SDS011;22064;42.672;23.282;2023-07-29T03:40:44;9.32;;;5.28;;
35990;SDS011;22064;42.672;23.282;2023-07-29T03:43:11;11.55;;;5.35;;
35990;SDS011;22064;42.672;23.282;2023-07-29T03:45:37;10.70;;;4.90;;
35990;SDS011;22064;42.672;23.282;2023-07-29T03:48:05;13.63;;;5.25;;
35990;SDS011;22064;42.672;23.282;2023-07-29T03:50:32;10.00;;;4.82;;
35990;SDS011;22064;42.672;23.282;2023-07-29T03:52:59;10.00;;;4.70;;
35990;SDS011;22064;42.672;23.282;2023-07-29T03:55:25;10.90;;;5.03;;
35990;SDS011;22064;42.672;23.282;2023-07-29T03:57:51;11.43;;;5.30;;
35990;SDS011;22064;42.672;23.282;2023-07-29T04:00:17;10.25;;;5.10;;
35990;SDS011;22064;42.672;23.282;2023-07-29T04:02:47;11.90;;;5.30;;
35990;SDS011;22064;42.672;23.282;2023-07-29T04:05:13;12.25;;;5.47;;
35990;SDS011;22064;42.672;23.282;2023-07-29T04:07:39;11.20;;;5.60;;
35990;SDS011;22064;42.672;23.282;2023-07-29T04:10:06;8.20;;;5.00;;
35990;SDS011;22064;42.672;23.282;2023-07-29T04:12:33;8.90;;;5.15;;
35990;SDS011;22064;42.672;23.282;2023-07-29T04:14:59;12.70;;;5.78;;
35990;SDS011;22064;42.672;23.282;2023-07-29T04:17:25;11.90;;;5.07;;
35990;SDS011;22064;42.672;23.282;2023-07-29T04:19:51;7.35;;;4.60;;
35990;SDS011;22064;42.672;23.282;2023-07-29T04:22:19;12.23;;;5.20;;
35990;SDS011;22064;42.672;23.282;2023-07-29T04:24:46;10.88;;;4.85;;
35990;SDS011;22064;42.672;23.282;2023-07-29T04:27:12;13.35;;;4.97;;
35990;SDS011;22064;42.672;23.282;2023-07-29T04:29:38;11.35;;;4.97;;
35990;SDS011;22064;42.672;23.282;2023-07-29T04:32:04;9.02;;;4.47;;
35990;SDS011;22064;42.672;23.282;2023-07-29T04:34:31;10.07;;;4.68;;
35990;SDS011;22064;42.672;23.282;2023-07-29T04:36:57;10.98;;;5.00;;
35990;SDS011;22064;42.672;23.282;2023-07-29T04:39:24;7.75;;;4.95;;
35990;SDS011;22064;42.672;23.282;2023-07-29T04:41:50;8.57;;;4.82;;
35990;SDS011;22064;42.672;23.282;2023-07-29T04:44:16;10.90;;;4.65;;
35990;SDS011;22064;42.672;23.282;2023-07-29T04:46:42;8.82;;;4.60;;
35990;SDS011;22064;42.672;23.282;2023-07-29T04:49:07;8.65;;;4.65;;
35990;SDS011;22064;42.672;23.282;2023-07-29T04:51:33;7.80;;;4.57;;
35990;SDS011;22064;42.672;23.282;2023-07-29T04:54:00;7.55;;;4.90;;
35990;SDS011;22064;42.672;23.282;2023-07-29T04:56:26;10.10;;;5.32;;
35990;SDS011;22064;42.672;23.282;2023-07-29T04:58:52;11.27;;;5.55;;
35990;SDS011;22064;42.672;23.282;2023-07-29T05:01:19;7.95;;;4.47;;
35990;SDS011;22064;42.672;23.282;2023-07-29T05:03:45;8.10;;;5.10;;
35990;SDS011;22064;42.672;23.282;2023-07-29T05:06:12;14.40;;;5.75;;
35990;SDS011;22064;42.672;23.282;2023-07-29T05:08:38;11.35;;;5.28;;
35990;SDS011;22064;42.672;23.282;2023-07-29T05:11:04;11.43;;;5.70;;
35990;SDS011;22064;42.672;23.282;2023-07-29T05:13:30;10.95;;;5.80;;
35990;SDS011;22064;42.672;23.282;2023-07-29T05:15:56;10.65;;;6.03;;
35990;SDS011;22064;42.672;23.282;2023-07-29T05:18:22;11.25;;;5.55;;
35990;SDS011;22064;42.672;23.282;2023-07-29T05:20:49;11.77;;;6.07;;
35990;SDS011;22064;42.672;23.282;2023-07-29T05:23:15;10.30;;;5.45;;
35990;SDS011;22064;42.672;23.282;2023-07-29T05:25:41;9.68;;;5.72;;
35990;SDS011;22064;42.672;23.282;2023-07-29T05:28:07;11.00;;;5.68;;
35990;SDS011;22064;42.672;23.282;2023-07-29T05:30:33;12.13;;;5.78;;
35990;SDS011;22064;42.672;23.282;2023-07-29T05:33:05;11.43;;;6.07;;
35990;SDS011;22064;42.672;23.282;2023-07-29T05:35:33;11.32;;;5.30;;
35990;SDS011;22064;42.672;23.282;2023-07-29T05:37:59;9.43;;;5.70;;
35990;SDS011;22064;42.672;23.282;2023-07-29T05:40:25;11.50;;;5.78;;
35990;SDS011;22064;42.672;23.282;2023-07-29T05:42:51;10.13;;;5.80;;
35990;SDS011;22064;42.672;23.282;2023-07-29T05:45:17;10.88;;;5.60;;
35990;SDS011;22064;42.672;23.282;2023-07-29T05:47:43;12.20;;;5.72;;
35990;SDS011;22064;42.672;23.282;2023-07-29T05:50:09;10.82;;;5.95;;
35990;SDS011;22064;42.672;23.282;2023-07-29T05:52:36;11.75;;;5.55;;
35990;SDS011;22064;42.672;23.282;2023-07-29T05:55:02;10.18;;;5.75;;
35990;SDS011;22064;42.672;23.282;2023-07-29T05:57:29;12.55;;;6.20;;
35990;SDS011;22064;42.672;23.282;2023-07-29T05:59:55;11.75;;;6.10;;
35990;SDS011;22064;42.672;23.282;2023-07-29T06:02:21;11.93;;;6.40;;
35990;SDS011;22064;42.672;23.282;2023-07-29T06:04:47;11.25;;;5.97;;
35990;SDS011;22064;42.672;23.282;2023-07-29T06:07:13;10.13;;;5.80;;
35990;SDS011;22064;42.672;23.282;2023-07-29T06:09:39;9.05;;;5.20;;
35990;SDS011;22064;42.672;23.282;2023-07-29T06:12:06;11.32;;;5.75;;
35990;SDS011;22064;42.672;23.282;2023-07-29T06:14:32;11.07;;;6.07;;
35990;SDS011;22064;42.672;23.282;2023-07-29T06:16:58;9.35;;;5.53;;
35990;SDS011;22064;42.672;23.282;2023-07-29T06:19:24;9.98;;;5.32;;
35990;SDS011;22064;42.672;23.282;2023-07-29T06:21:50;10.38;;;5.30;;
35990;SDS011;22064;42.672;23.282;2023-07-29T06:24:17;11.23;;;6.15;;
35990;SDS011;22064;42.672;23.282;2023-07-29T06:26:43;10.82;;;5.80;;
35990;SDS011;22064;42.672;23.282;2023-07-29T06:29:09;12.40;;;5.50;;
35990;SDS011;22064;42.672;23.282;2023-07-29T06:31:35;10.82;;;5.32;;
35990;SDS011;22064;42.672;23.282;2023-07-29T06:34:01;9.45;;;5.35;;
35990;SDS011;22064;42.672;23.282;2023-07-29T06:36:27;11.48;;;5.30;;
35990;SDS011;22064;42.672;23.282;2023-07-29T06:38:53;10.35;;;5.43;;
35990;SDS011;22064;42.672;23.282;2023-07-29T06:41:19;10.15;;;5.40;;
35990;SDS011;22064;42.672;23.282;2023-07-29T06:43:45;8.80;;;4.70;;
35990;SDS011;22064;42.672;23.282;2023-07-29T06:46:11;7.63;;;4.43;;
35990;SDS011;22064;42.672;23.282;2023-07-29T06:48:37;8.52;;;4.47;;
35990;SDS011;22064;42.672;23.282;2023-07-29T06:51:02;10.20;;;4.55;;
35990;SDS011;22064;42.672;23.282;2023-07-29T06:53:28;8.60;;;4.80;;
35990;SDS011;22064;42.672;23.282;2023-07-29T06:55:55;10.00;;;5.07;;
35990;SDS011;22064;42.672;23.282;2023-07-29T06:58:21;7.45;;;4.82;;
35990;SDS011;22064;42.672;23.282;2023-07-29T07:00:47;8.60;;;4.53;;
35990;SDS011;22064;42.672;23.282;2023-07-29T07:03:13;9.45;;;4.35;;
35990;SDS011;22064;42.672;23.282;2023-07-29T07:05:39;7.70;;;4.68;;
35990;SDS011;22064;42.672;23.282;2023-07-29T07:08:05;9.43;;;4.60;;
35990;SDS011;22064;42.672;23.282;2023-07-29T07:10:30;8.32;;;4.43;;
35990;SDS011;22064;42.672;23.282;2023-07-29T07:12:57;7.38;;;4.32;;
35990;SDS011;22064;42.672;23.282;2023-07-29T07:15:23;8.60;;;4.82;;
35990;SDS011;22064;42.672;23.282;2023-07-29T07:17:52;10.52;;;4.47;;
35990;SDS011;22064;42.672;23.282;2023-07-29T07:20:18;7.60;;;4.28;;
35990;SDS011;22064;42.672;23.282;2023-07-29T07:22:44;11.40;;;4.30;;
35990;SDS011;22064;42.672;23.282;2023-07-29T07:25:10;9.13;;;4.72;;
35990;SDS011;22064;42.672;23.282;2023-07-29T07:27:37;8.88;;;4.63;;
35990;SDS011;22064;42.672;23.282;2023-07-29T07:30:03;10.60;;;4.93;;
35990;SDS011;22064;42.672;23.282;2023-07-29T07:32:29;8.02;;;4.78;;
35990;SDS011;22064;42.672;23.282;2023-07-29T07:34:55;11.02;;;4.97;;
35990;SDS011;22064;42.672;23.282;2023-07-29T07:37:22;7.75;;;4.65;;
35990;SDS011;22064;42.672;23.282;2023-07-29T07:39:48;8.85;;;4.28;;
35990;SDS011;22064;42.672;23.282;2023-07-29T07:42:13;7.30;;;4.63;;
35990;SDS011;22064;42.672;23.282;2023-07-29T07:44:40;6.93;;;4.25;;
35990;SDS011;22064;42.672;23.282;2023-07-29T07:47:06;7.43;;;4.22;;
35990;SDS011;22064;42.672;23.282;2023-07-29T07:49:32;7.75;;;4.82;;
35990;SDS011;22064;42.672;23.282;2023-07-29T07:51:57;11.02;;;5.03;;
35990;SDS011;22064;42.672;23.282;2023-07-29T07:54:23;9.93;;;4.65;;
35990;SDS011;22064;42.672;23.282;2023-07-29T07:56:50;8.27;;;4.57;;
35990;SDS011;22064;42.672;23.282;2023-07-29T07:59:16;8.25;;;4.43;;
35990;SDS011;22064;42.672;23.282;2023-07-29T08:01:42;7.20;;;4.20;;
35990;SDS011;22064;42.672;23.282;2023-07-29T08:04:07;7.60;;;4.32;;
35990;SDS011;22064;42.672;23.282;2023-07-29T08:06:34;9.43;;;4.68;;
35990;SDS011;22064;42.672;23.282;2023-07-29T08:09:01;9.93;;;4.40;;
35990;SDS011;22064;42.672;23.282;2023-07-29T08:11:27;13.10;;;4.53;;
35990;SDS011;22064;42.672;23.282;2023-07-29T08:13:53;7.15;;;4.45;;
35990;SDS011;22064;42.672;23.282;2023-07-29T08:16:19;8.57;;;4.10;;
35990;SDS011;22064;42.672;23.282;2023-07-29T08:18:45;9.20;;;4.50;;
35990;SDS011;22064;42.672;23.282;2023-07-29T08:21:10;7.53;;;4.40;;
35990;SDS011;22064;42.672;23.282;2023-07-29T08:23:36;8.80;;;4.55;;
35990;SDS011;22064;42.672;23.282;2023-07-29T08:26:04;11.38;;;5.03;;
35990;SDS011;22064;42.672;23.282;2023-07-29T08:28:31;8.00;;;4.78;;
35990;SDS011;22064;42.672;23.282;2023-07-29T08:30:59;7.88;;;4.20;;
35990;SDS011;22064;42.672;23.282;2023-07-29T08:33:25;8.40;;;4.45;;
35990;SDS011;22064;42.672;23.282;2023-07-29T08:35:52;8.10;;;4.10;;
35990;SDS011;22064;42.672;23.282;2023-07-29T08:38:18;8.65;;;4.30;;
35990;SDS011;22064;42.672;23.282;2023-07-29T08:40:45;5.40;;;3.67;;
35990;SDS011;22064;42.672;23.282;2023-07-29T08:43:24;9.32;;;4.18;;
35990;SDS011;22064;42.672;23.282;2023-07-29T08:45:57;14.23;;;5.72;;
35990;SDS011;22064;42.672;23.282;2023-07-29T08:48:27;10.30;;;4.50;;
35990;SDS011;22064;42.672;23.282;2023-07-29T08:50:59;11.40;;;4.70;;
35990;SDS011;22064;42.672;23.282;2023-07-29T08:53:29;7.03;;;3.58;;
35990;SDS011;22064;42.672;23.282;2023-07-29T08:55:56;7.72;;;3.45;;
35990;SDS011;22064;42.672;23.282;2023-07-29T08:58:22;6.68;;;3.17;;
35990;SDS011;22064;42.672;23.282;2023-07-29T09:00:50;7.20;;;3.38;;
35990;SDS011;22064;42.672;23.282;2023-07-29T09:03:16;6.63;;;3.25;;
35990;SDS011;22064;42.672;23.282;2023-07-29T09:05:42;8.10;;;2.95;;
35990;SDS011;22064;42.672;23.282;2023-07-29T09:08:09;5.20;;;2.67;;
35990;SDS011;22064;42.672;23.282;2023-07-29T09:10:38;3.40;;;2.40;;
35990;SDS011;22064;42.672;23.282;2023-07-29T09:13:04;3.83;;;2.78;;
35990;SDS011;22064;42.672;23.282;2023-07-29T09:15:32;5.28;;;2.90;;
35990;SDS011;22064;42.672;23.282;2023-07-29T09:17:59;5.82;;;3.17;;
35990;SDS011;22064;42.672;23.282;2023-07-29T09:20:37;8.43;;;3.10;;
35990;SDS011;22064;42.672;23.282;2023-07-29T09:23:03;7.13;;;3.00;;
35990;SDS011;22064;42.672;23.282;2023-07-29T09:25:34;4.40;;;2.50;;
35990;SDS011;22064;42.672;23.282;2023-07-29T09:28:00;3.80;;;2.60;;
35990;SDS011;22064;42.672;23.282;2023-07-29T09:30:32;4.45;;;2.97;;
35990;SDS011;22064;42.672;23.282;2023-07-29T09:32:59;7.03;;;2.75;;
35990;SDS011;22064;42.672;23.282;2023-07-29T09:35:26;3.42;;;2.63;;
35990;SDS011;22064;42.672;23.282;2023-07-29T09:37:53;2.60;;;2.38;;
35990;SDS011;22064;42.672;23.282;2023-07-29T09:40:19;2.92;;;2.53;;
35990;SDS011;22064;42.672;23.282;2023-07-29T09:42:52;2.85;;;2.40;;
35990;SDS011;22064;42.672;23.282;2023-07-29T09:45:22;6.90;;;2.80;;
35990;SDS011;22064;42.672;23.282;2023-07-29T09:47:49;5.07;;;2.65;;
35990;SDS011;22064;42.672;23.282;2023-07-29T09:50:16;4.15;;;2.20;;
35990;SDS011;22064;42.672;23.282;2023-07-29T09:52:43;2.53;;;2.33;;
35990;SDS011;22064;42.672;23.282;2023-07-29T09:55:11;4.30;;;2.45;;
35990;SDS011;22064;42.672;23.282;2023-07-29T09:57:39;4.45;;;2.42;;
35990;SDS011;22064;42.672;23.282;2023-07-29T10:00:06;4.13;;;2.10;;
35990;SDS011;22064;42.672;23.282;2023-07-29T10:02:37;3.45;;;2.40;;
35990;SDS011;22064;42.672;23.282;2023-07-29T10:05:05;5.40;;;1.83;;
35990;SDS011;22064;42.672;23.282;2023-07-29T10:07:34;4.63;;;2.42;;
35990;SDS011;22064;42.672;23.282;2023-07-29T10:10:02;6.30;;;2.10;;
35990;SDS011;22064;42.672;23.282;2023-07-29T10:12:30;4.43;;;2.17;;
35990;SDS011;22064;42.672;23.282;2023-07-29T10:15:02;6.38;;;1.80;;
35990;SDS011;22064;42.672;23.282;2023-07-29T10:17:30;6.30;;;2.38;;
35990;SDS011;22064;42.672;23.282;2023-07-29T10:19:56;4.28;;;2.45;;
35990;SDS011;22064;42.672;23.282;2023-07-29T10:22:27;4.78;;;1.92;;
35990;SDS011;22064;42.672;23.282;2023-07-29T10:24:59;4.63;;;1.92;;
35990;SDS011;22064;42.672;23.282;2023-07-29T10:28:33;5.93;;;2.30;;
35990;SDS011;22064;42.672;23.282;2023-07-29T10:30:32;3.20;;;1.83;;
35990;SDS011;22064;42.672;23.282;2023-07-29T10:33:01;3.03;;;1.88;;
35990;SDS011;22064;42.672;23.282;2023-07-29T10:35:30;1.48;;;1.38;;
35990;SDS011;22064;42.672;23.282;2023-07-29T10:37:58;2.60;;;1.55;;
35990;SDS011;22064;42.672;23.282;2023-07-29T10:40:25;2.30;;;1.52;;
35990;SDS011;22064;42.672;23.282;2023-07-29T10:43:09;4.50;;;1.80;;
35990;SDS011;22064;42.672;23.282;2023-07-29T10:45:40;1.95;;;1.63;;
35990;SDS011;22064;42.672;23.282;2023-07-29T10:51:16;1.52;;;1.25;;
35990;SDS011;22064;42.672;23.282;2023-07-29T10:53:50;1.38;;;1.27;;
35990;SDS011;22064;42.672;23.282;2023-07-29T10:56:26;3.08;;;1.90;;
35990;SDS011;22064;42.672;23.282;2023-07-29T11:01:38;2.65;;;2.10;;
35990;SDS011;22064;42.672;23.282;2023-07-29T11:15:14;2.28;;;1.75;;
35990;SDS011;22064;42.672;23.282;2023-07-29T11:17:41;1.92;;;1.52;;
35990;SDS011;22064;42.672;23.282;2023-07-29T11:20:10;2.42;;;1.40;;
35990;SDS011;22064;42.672;23.282;2023-07-29T11:22:37;1.65;;;1.48;;
35990;SDS011;22064;42.672;23.282;2023-07-29T11:25:05;1.92;;;1.60;;
35990;SDS011;22064;42.672;23.282;2023-07-29T11:27:32;1.65;;;1.48;;
35990;SDS011;22064;42.672;23.282;2023-07-29T11:29:59;5.53;;;1.83;;
35990;SDS011;22064;42.672;23.282;2023-07-29T11:32:26;1.60;;;1.50;;
35990;SDS011;22064;42.672;23.282;2023-07-29T11:34:52;3.17;;;1.70;;
35990;SDS011;22064;42.672;23.282;2023-07-29T11:37:18;2.45;;;1.70;;
35990;SDS011;22064;42.672;23.282;2023-07-29T11:39:46;2.03;;;1.52;;
35990;SDS011;22064;42.672;23.282;2023-07-29T11:42:13;2.33;;;1.60;;
35990;SDS011;22064;42.672;23.282;2023-07-29T11:44:40;2.58;;;1.90;;
35990;SDS011;22064;42.672;23.282;2023-07-29T11:47:07;3.35;;;1.75;;
35990;SDS011;22064;42.672;23.282;2023-07-29T11:49:34;1.88;;;1.73;;
35990;SDS011;22064;42.672;23.282;2023-07-29T11:52:01;2.97;;;1.90;;
35990;SDS011;22064;42.672;23.282;2023-07-29T11:54:29;1.95;;;1.75;;
35990;SDS011;22064;42.672;23.282;2023-07-29T11:56:55;3.47;;;1.65;;
35990;SDS011;22064;42.672;23.282;2023-07-29T11:59:21;3.03;;;1.67;;
35990;SDS011;22064;42.672;23.282;2023-07-29T12:01:47;3.10;;;1.90;;
35990;SDS011;22064;42.672;23.282;2023-07-29T12:04:13;1.85;;;1.50;;
35990;SDS011;22064;42.672;23.282;2023-07-29T12:06:39;2.25;;;1.52;;
35990;SDS011;22064;42.672;23.282;2023-07-29T12:09:06;2.33;;;1.67;;
35990;SDS011;22064;42.672;23.282;2023-07-29T12:11:33;1.73;;;1.55;;
35990;SDS011;22064;42.672;23.282;2023-07-29T12:13:59;3.08;;;1.70;;
35990;SDS011;22064;42.672;23.282;2023-07-29T12:16:26;3.15;;;1.70;;
35990;SDS011;22064;42.672;23.282;2023-07-29T12:18:52;2.47;;;1.90;;
35990;SDS011;22064;42.672;23.282;2023-07-29T12:21:18;3.38;;;1.90;;
35990;SDS011;22064;42.672;23.282;2023-07-29T12:23:45;2.00;;;1.80;;
35990;SDS011;22064;42.672;23.282;2023-07-29T12:26:11;3.90;;;1.92;;
35990;SDS011;22064;42.672;23.282;2023-07-29T12:28:36;3.33;;;2.08;;
35990;SDS011;22064;42.672;23.282;2023-07-29T12:31:06;2.55;;;1.60;;
35990;SDS011;22064;42.672;23.282;2023-07-29T12:33:34;1.70;;;1.60;;
35990;SDS011;22064;42.672;23.282;2023-07-29T12:36:01;3.08;;;1.85;;
35990;SDS011;22064;42.672;23.282;2023-07-29T12:38:28;4.47;;;1.85;;
35990;SDS011;22064;42.672;23.282;2023-07-29T12:40:55;3.03;;;2.03;;
35990;SDS011;22064;42.672;23.282;2023-07-29T12:43:21;2.53;;;1.70;;
35990;SDS011;22064;42.672;23.282;2023-07-29T12:45:50;3.65;;;1.83;;
35990;SDS011;22064;42.672;23.282;2023-07-29T12:48:17;2.88;;;2.10;;
35990;SDS011;22064;42.672;23.282;2023-07-29T12:50:43;2.03;;;1.80;;
35990;SDS011;22064;42.672;23.282;2023-07-29T12:53:09;1.77;;;1.67;;
35990;SDS011;22064;42.672;23.282;2023-07-29T12:55:36;3.45;;;1.58;;
35990;SDS011;22064;42.672;23.282;2023-07-29T12:58:02;3.22;;;2.13;;
35990;SDS011;22064;42.672;23.282;2023-07-29T13:00:29;2.75;;;1.90;;
35990;SDS011;22064;42.672;23.282;2023-07-29T13:02:55;1.70;;;1.60;;
35990;SDS011;22064;42.672;23.282;2023-07-29T13:05:21;3.42;;;1.92;;
35990;SDS011;22064;42.672;23.282;2023-07-29T13:07:47;1.60;;;1.50;;
35990;SDS011;22064;42.672;23.282;2023-07-29T13:10:13;4.80;;;1.58;;
35990;SDS011;22064;42.672;23.282;2023-07-29T13:12:39;1.92;;;1.73;;
35990;SDS011;22064;42.672;23.282;2023-07-29T13:15:06;1.77;;;1.63;;
35990;SDS011;22064;42.672;23.282;2023-07-29T13:17:33;2.38;;;1.80;;
35990;SDS011;22064;42.672;23.282;2023-07-29T13:19:59;2.22;;;1.70;;
35990;SDS011;22064;42.672;23.282;2023-07-29T13:22:25;2.70;;;2.03;;
35990;SDS011;22064;42.672;23.282;2023-07-29T13:24:52;3.30;;;1.60;;
35990;SDS011;22064;42.672;23.282;2023-07-29T13:27:18;5.53;;;2.00;;
35990;SDS011;22064;42.672;23.282;2023-07-29T13:29:44;3.95;;;1.77;;
35990;SDS011;22064;42.672;23.282;2023-07-29T13:32:11;2.15;;;1.95;;
35990;SDS011;22064;42.672;23.282;2023-07-29T13:34:37;2.67;;;2.33;;
35990;SDS011;22064;42.672;23.282;2023-07-29T13:37:05;4.10;;;2.00;;
35990;SDS011;22064;42.672;23.282;2023-07-29T13:39:31;2.72;;;2.20;;
35990;SDS011;22064;42.672;23.282;2023-07-29T13:41:57;3.05;;;2.30;;
35990;SDS011;22064;42.672;23.282;2023-07-29T13:44:23;4.28;;;1.92;;
35990;SDS011;22064;42.672;23.282;2023-07-29T13:46:49;3.35;;;2.08;;
35990;SDS011;22064;42.672;23.282;2023-07-29T13:49:15;4.65;;;2.10;;
35990;SDS011;22064;42.672;23.282;2023-07-29T13:51:42;5.38;;;3.10;;
35990;SDS011;22064;42.672;23.282;2023-07-29T13:54:08;5.32;;;3.25;;
35990;SDS011;22064;42.672;23.282;2023-07-29T13:56:34;6.68;;;3.22;;
35990;SDS011;22064;42.672;23.282;2023-07-29T13:59:00;5.25;;;3.05;;
35990;SDS011;22064;42.672;23.282;2023-07-29T14:01:26;4.07;;;2.90;;
35990;SDS011;22064;42.672;23.282;2023-07-29T14:03:52;5.47;;;2.70;;
35990;SDS011;22064;42.672;23.282;2023-07-29T14:06:18;4.60;;;2.55;;
35990;SDS011;22064;42.672;23.282;2023-07-29T14:08:44;4.22;;;2.42;;
35990;SDS011;22064;42.672;23.282;2023-07-29T14:11:10;2.80;;;2.50;;
35990;SDS011;22064;42.672;23.282;2023-07-29T14:13:35;9.70;;;2.72;;
35990;SDS011;22064;42.672;23.282;2023-07-29T14:16:02;4.32;;;2.70;;
35990;SDS011;22064;42.672;23.282;2023-07-29T14:18:28;4.43;;;2.60;;
35990;SDS011;22064;42.672;23.282;2023-07-29T14:20:54;5.32;;;2.40;;
35990;SDS011;22064;42.672;23.282;2023-07-29T14:23:20;4.70;;;2.78;;
35990;SDS011;22064;42.672;23.282;2023-07-29T14:25:46;5.95;;;2.85;;
35990;SDS011;22064;42.672;23.282;2023-07-29T14:28:12;3.47;;;2.30;;
35990;SDS011;22064;42.672;23.282;2023-07-29T14:30:39;2.88;;;2.35;;
35990;SDS011;22064;42.672;23.282;2023-07-29T14:33:07;3.10;;;2.40;;
35990;SDS011;22064;42.672;23.282;2023-07-29T14:35:33;2.97;;;2.50;;
35990;SDS011;22064;42.672;23.282;2023-07-29T14:37:59;3.42;;;2.40;;
35990;SDS011;22064;42.672;23.282;2023-07-29T14:40:25;3.67;;;2.70;;
35990;SDS011;22064;42.672;23.282;2023-07-29T14:42:50;3.38;;;2.08;;
35990;SDS011;22064;42.672;23.282;2023-07-29T14:45:17;4.40;;;2.67;;
35990;SDS011;22064;42.672;23.282;2023-07-29T14:47:43;2.83;;;2.40;;
35990;SDS011;22064;42.672;23.282;2023-07-29T14:50:09;3.30;;;2.05;;
35990;SDS011;22064;42.672;23.282;2023-07-29T14:52:35;2.22;;;2.00;;
35990;SDS011;22064;42.672;23.282;2023-07-29T14:55:00;4.15;;;2.13;;